createdAt,value
2018-04-25T00:01:48.280Z,29.73
2018-04-25T00:04:15.232Z,30.80
2018-04-25T00:06:42.186Z,29.23
2018-04-25T00:09:09.129Z,30.13
2018-04-25T00:11:36.144Z,30.60
2018-04-25T00:14:04.089Z,29.77
2018-04-25T00:16:31.001Z,30.97
2018-04-25T00:18:57.918Z,31.27
2018-04-25T00:21:25.026Z,29.50
2018-04-25T00:23:51.958Z,30.33
2018-04-25T00:26:18.853Z,33.20
2018-04-25T00:28:46.526Z,32.90
2018-04-25T00:31:13.432Z,33.33
2018-04-25T00:33:40.368Z,32.87
2018-04-25T00:36:07.447Z,33.57
2018-04-25T00:38:35.084Z,34.17
2018-04-25T00:41:02.882Z,32.70
2018-04-25T00:43:30.624Z,32.03
2018-04-25T00:45:57.590Z,31.73
2018-04-25T00:48:25.287Z,32.17
2018-04-25T00:50:52.289Z,31.70
2018-04-25T00:53:19.270Z,32.53
2018-04-25T00:55:46.330Z,31.83
2018-04-25T00:58:13.510Z,30.93
2018-04-25T01:00:40.472Z,33.33
2018-04-25T01:03:07.409Z,32.67
2018-04-25T01:05:34.583Z,31.77
2018-04-25T01:08:01.559Z,31.67
2018-04-25T01:10:28.830Z,31.27
2018-04-25T01:12:55.940Z,31.87
2018-04-25T01:15:23.707Z,30.67
2018-04-25T01:17:51.416Z,32.50
2018-04-25T01:20:19.420Z,32.03
2018-04-25T01:22:46.413Z,31.57
2018-04-25T01:25:33.201Z,31.47
2018-04-25T01:28:17.520Z,31.27
2018-04-25T01:30:45.487Z,32.70
2018-04-25T01:33:18.140Z,32.27
2018-04-25T01:35:45.199Z,31.43
2018-04-25T01:38:12.208Z,30.80
2018-04-25T01:40:39.911Z,31.60
2018-04-25T01:43:10.801Z,31.80
2018-04-25T01:48:56.724Z,30.60
2018-04-25T01:51:42.797Z,30.70
2018-04-25T01:54:28.181Z,28.90
2018-04-25T01:57:13.441Z,27.70
2018-04-25T01:59:58.763Z,28.60
2018-04-25T02:02:26.118Z,28.77
2018-04-25T02:04:53.747Z,29.23
2018-04-25T02:07:20.621Z,26.67
2018-04-25T02:09:48.297Z,30.07
2018-04-25T02:12:15.219Z,26.00
2018-04-25T02:14:42.136Z,26.80
2018-04-25T02:17:09.209Z,26.90
2018-04-25T02:19:36.101Z,26.77
2018-04-25T02:22:03.042Z,24.37
2018-04-25T02:24:30.105Z,26.70
2018-04-25T02:26:56.998Z,25.97
2018-04-25T02:29:23.877Z,25.37
2018-04-25T02:31:50.891Z,25.17
2018-04-25T02:34:17.773Z,23.57
2018-04-25T02:36:44.655Z,23.53
2018-04-25T02:39:11.654Z,22.23
2018-04-25T02:41:38.602Z,22.43
2018-04-25T02:44:05.485Z,20.60
2018-04-25T02:46:32.522Z,21.97
2018-04-25T02:48:59.402Z,20.83
2018-04-25T02:51:26.284Z,21.13
2018-04-25T02:53:53.949Z,21.87
2018-04-25T02:56:20.822Z,21.03
2018-04-25T02:58:47.795Z,21.00
2018-04-25T03:01:14.821Z,20.27
2018-04-25T03:03:41.755Z,20.10
2018-04-25T03:06:08.667Z,20.00
2018-04-25T03:08:36.537Z,20.13
2018-04-25T03:11:04.151Z,20.73
2018-04-25T03:13:31.107Z,19.73
2018-04-25T03:15:58.769Z,20.20
2018-04-25T03:18:25.641Z,19.23
2018-04-25T03:20:52.504Z,19.37
2018-04-25T03:23:20.223Z,19.60
2018-04-25T03:25:47.126Z,20.20
2018-04-25T03:28:14.728Z,20.80
2018-04-25T03:30:41.798Z,18.97
2018-04-25T03:33:08.725Z,18.53
2018-04-25T03:35:35.596Z,19.33
2018-04-25T03:38:02.899Z,19.23
2018-04-25T03:40:29.777Z,19.73
2018-04-25T03:42:56.660Z,19.37
2018-04-25T03:45:24.447Z,20.40
2018-04-25T03:47:51.379Z,18.87
2018-04-25T03:50:19.052Z,19.17
2018-04-25T03:52:46.015Z,18.87
2018-04-25T03:55:12.889Z,17.60
2018-04-25T03:57:39.773Z,18.50
2018-04-25T04:00:07.533Z,18.33
2018-04-25T04:02:35.149Z,19.10
2018-04-25T04:05:02.018Z,17.53
2018-04-25T04:07:29.131Z,17.63
2018-04-25T04:09:56.000Z,17.40
2018-04-25T04:12:22.927Z,18.13
2018-04-25T04:14:50.042Z,18.90
2018-04-25T04:17:17.664Z,17.80
2018-04-25T04:19:44.608Z,17.47
2018-04-25T04:22:11.633Z,17.30
2018-04-25T04:24:38.496Z,17.00
2018-04-25T04:27:05.380Z,17.37
2018-04-25T04:29:33.089Z,18.23
2018-04-25T04:31:59.962Z,16.50
2018-04-25T04:34:26.863Z,16.70
2018-04-25T04:36:53.997Z,16.57
2018-04-25T04:39:21.660Z,15.90
2018-04-25T04:41:49.279Z,14.73
2018-04-25T04:44:16.205Z,15.40
2018-04-25T04:46:43.071Z,16.37
2018-04-25T04:49:09.992Z,14.47
2018-04-25T04:51:37.003Z,14.70
2018-04-25T04:54:04.709Z,14.20
2018-04-25T04:56:31.576Z,15.87
2018-04-25T04:58:58.666Z,16.03
2018-04-25T05:01:26.348Z,14.90
2018-04-25T05:03:53.276Z,14.07
2018-04-25T05:06:21.107Z,13.60
2018-04-25T05:08:48.015Z,13.10
2018-04-25T05:11:14.948Z,13.57
2018-04-25T05:13:41.885Z,13.63
2018-04-25T05:16:08.808Z,13.80
2018-04-25T05:18:35.692Z,13.60
2018-04-25T05:21:02.681Z,12.27
2018-04-25T05:23:29.620Z,12.57
2018-04-25T05:25:56.507Z,12.10
2018-04-25T05:28:24.328Z,12.27
2018-04-25T05:30:51.201Z,13.10
2018-04-25T05:33:18.096Z,11.83
2018-04-25T05:35:45.151Z,11.87
2018-04-25T05:38:12.068Z,11.33
2018-04-25T05:40:39.682Z,11.53
2018-04-25T05:43:06.623Z,10.80
2018-04-25T05:45:33.558Z,10.47
2018-04-25T05:48:00.518Z,9.30
2018-04-25T05:50:27.459Z,10.73
2018-04-25T05:52:54.316Z,10.70
2018-04-25T05:55:21.264Z,11.33
2018-04-25T05:57:48.259Z,10.97
2018-04-25T06:00:15.866Z,12.33
2018-04-25T06:02:42.738Z,11.43
2018-04-25T06:05:10.625Z,12.70
2018-04-25T06:07:37.519Z,11.90
2018-04-25T06:10:04.396Z,10.60
2018-04-25T06:12:31.516Z,10.70
2018-04-25T06:14:58.460Z,9.83
2018-04-25T06:17:25.347Z,9.13
2018-04-25T06:19:53.179Z,9.10
2018-04-25T06:22:20.890Z,9.33
2018-04-25T06:24:48.563Z,8.90
2018-04-25T06:27:15.684Z,8.83
2018-04-25T06:29:42.558Z,8.40
2018-04-25T06:32:09.428Z,8.40
2018-04-25T06:34:36.485Z,6.27
2018-04-25T06:37:03.480Z,5.23
2018-04-25T06:39:30.465Z,5.30
2018-04-25T06:41:57.549Z,4.93
2018-04-25T06:44:24.483Z,5.47
2018-04-25T06:46:52.152Z,4.60
2018-04-25T06:49:19.225Z,4.20
2018-04-25T06:51:46.114Z,4.07
2018-04-25T06:54:12.991Z,3.37
2018-04-25T06:56:40.136Z,3.27
2018-04-25T06:59:06.969Z,4.13
2018-04-25T07:01:33.844Z,3.93
2018-04-25T07:04:00.757Z,4.10
2018-04-25T07:06:27.632Z,3.93
2018-04-25T07:08:54.565Z,4.17
2018-04-25T07:11:21.650Z,4.93
2018-04-25T07:13:49.475Z,5.27
2018-04-25T07:16:16.345Z,4.43
2018-04-25T07:18:43.425Z,4.03
2018-04-25T07:21:11.109Z,4.13
2018-04-25T07:23:38.069Z,4.70
2018-04-25T07:26:05.236Z,4.47
2018-04-25T07:28:32.202Z,4.57
2018-04-25T07:30:59.093Z,4.30
2018-04-25T07:33:26.218Z,3.80
2018-04-25T07:35:54.109Z,4.07
2018-04-25T07:38:21.778Z,4.27
2018-04-25T07:40:48.993Z,3.03
2018-04-25T07:43:15.850Z,3.53
2018-04-25T07:45:43.827Z,2.73
2018-04-25T07:48:11.645Z,2.83
2018-04-25T07:50:38.607Z,3.10
2018-04-25T07:53:05.533Z,3.07
2018-04-25T07:55:32.521Z,3.20
2018-04-25T07:57:59.397Z,2.93
2018-04-25T08:00:26.281Z,3.00
2018-04-25T08:02:53.222Z,2.47
2018-04-25T08:05:20.144Z,2.77
2018-04-25T08:07:47.011Z,3.10
2018-04-25T08:10:14.097Z,2.30
2018-04-25T08:12:59.492Z,2.73
2018-04-25T08:15:44.634Z,3.27
2018-04-25T08:18:29.872Z,2.13
2018-04-25T08:24:05.940Z,1.80
2018-04-25T08:26:32.951Z,1.83
2018-04-25T08:28:59.878Z,2.33
2018-04-25T08:31:26.832Z,1.70
2018-04-25T08:33:53.891Z,2.03
2018-04-25T08:36:20.768Z,1.60
2018-04-25T08:38:48.387Z,1.63
2018-04-25T08:41:15.497Z,1.80
2018-04-25T08:43:42.411Z,1.63
2018-04-25T08:46:09.316Z,1.90
2018-04-25T08:48:36.356Z,1.03
2018-04-25T08:51:03.253Z,0.90
2018-04-25T08:53:30.909Z,0.80
2018-04-25T08:55:58.712Z,1.00
2018-04-25T08:58:25.591Z,1.00
2018-04-25T09:00:52.465Z,0.73
2018-04-25T09:03:19.638Z,0.80
2018-04-25T09:05:46.653Z,0.63
2018-04-25T09:08:13.620Z,0.90
2018-04-25T09:10:41.297Z,0.60
2018-04-25T09:13:08.233Z,0.60
2018-04-25T09:15:35.991Z,0.87
2018-04-25T09:18:03.021Z,0.70
2018-04-25T09:20:29.907Z,0.70
2018-04-25T09:22:56.916Z,0.77
2018-04-25T09:25:23.841Z,0.60
2018-04-25T09:27:51.557Z,0.50
2018-04-25T09:30:18.444Z,0.80
2018-04-25T09:32:45.491Z,0.53
2018-04-25T09:35:12.361Z,0.50
2018-04-25T09:37:39.287Z,0.50
2018-04-25T09:40:06.478Z,0.53
2018-04-25T09:42:34.104Z,0.47
2018-04-25T09:45:00.993Z,0.53
2018-04-25T09:47:28.765Z,0.70
2018-04-25T09:49:56.402Z,1.20
2018-04-25T09:52:23.298Z,0.70
2018-04-25T09:54:50.280Z,0.37
2018-04-25T09:57:17.149Z,0.40
2018-04-25T09:59:44.030Z,0.50
2018-04-25T10:02:17.012Z,0.57
2018-04-25T10:04:43.878Z,0.83
2018-04-25T10:07:10.817Z,0.83
2018-04-25T10:09:37.854Z,0.73
2018-04-25T10:12:04.797Z,0.83
2018-04-25T10:14:31.713Z,0.83
2018-04-25T10:16:58.724Z,0.90
2018-04-25T10:19:25.650Z,0.70
2018-04-25T10:21:52.524Z,0.90
2018-04-25T10:24:19.685Z,0.80
2018-04-25T10:26:46.617Z,0.50
2018-04-25T10:29:14.581Z,0.80
2018-04-25T10:31:41.669Z,0.60
2018-04-25T10:34:08.623Z,1.30
2018-04-25T10:36:35.583Z,0.70
2018-04-25T10:39:03.527Z,1.10
2018-04-25T10:41:30.521Z,0.80
2018-04-25T10:43:57.406Z,0.93
2018-04-25T10:46:24.490Z,1.57
2018-04-25T10:48:52.111Z,0.70
2018-04-25T10:51:18.997Z,0.70
2018-04-25T10:53:46.160Z,0.70
2018-04-25T10:56:13.098Z,0.90
2018-04-25T10:58:40.760Z,0.57
2018-04-25T11:01:08.515Z,0.80
2018-04-25T11:03:36.141Z,0.80
2018-04-25T11:06:03.110Z,0.80
2018-04-25T11:08:30.030Z,0.90
2018-04-25T11:10:56.913Z,0.60
2018-04-25T11:13:23.804Z,0.70
2018-04-25T11:15:50.721Z,0.80
2018-04-25T11:18:18.359Z,0.83
2018-04-25T11:20:45.253Z,0.87
2018-04-25T11:23:12.413Z,1.00
2018-04-25T11:25:39.425Z,0.70
2018-04-25T11:28:07.088Z,0.73
2018-04-25T11:30:34.180Z,0.70
2018-04-25T11:33:01.022Z,0.97
2018-04-25T11:35:27.908Z,0.70
2018-04-25T11:37:54.994Z,0.77
2018-04-25T11:40:21.870Z,1.20
2018-04-25T11:42:48.797Z,0.80
2018-04-25T11:45:15.936Z,0.53
2018-04-25T11:47:42.916Z,0.80
2018-04-25T11:50:09.825Z,0.77
2018-04-25T11:52:36.853Z,0.80
2018-04-25T11:55:04.513Z,1.00
2018-04-25T11:57:32.155Z,0.83
2018-04-25T11:59:59.196Z,0.93
2018-04-25T12:02:26.132Z,1.00
2018-04-25T12:04:53.070Z,0.93
2018-04-25T12:07:20.129Z,1.10
2018-04-25T12:09:47.054Z,0.93
2018-04-25T12:12:13.937Z,0.80
2018-04-25T12:14:40.976Z,0.87
2018-04-25T12:17:07.867Z,0.90
2018-04-25T12:19:35.527Z,0.80
2018-04-25T12:22:02.613Z,0.83
2018-04-25T12:24:29.541Z,1.27
2018-04-25T12:26:56.478Z,1.37
2018-04-25T12:29:23.419Z,0.80
2018-04-25T12:31:51.030Z,1.00
2018-04-25T12:34:17.913Z,0.83
2018-04-25T12:36:45.721Z,1.20
2018-04-25T12:39:12.599Z,0.90
2018-04-25T12:41:39.543Z,0.80
2018-04-25T12:44:07.240Z,1.10
2018-04-25T12:46:34.861Z,0.93
2018-04-25T12:49:01.747Z,0.90
2018-04-25T12:51:29.420Z,1.60
2018-04-25T12:53:57.089Z,1.07
2018-04-25T12:56:24.764Z,1.00
2018-04-25T12:58:51.829Z,1.13
2018-04-25T13:01:18.697Z,1.13
2018-04-25T13:03:45.567Z,0.90
2018-04-25T13:06:12.633Z,0.90
2018-04-25T13:08:40.326Z,1.10
2018-04-25T13:11:07.263Z,0.90
2018-04-25T13:13:34.268Z,0.87
2018-04-25T13:16:01.197Z,0.90
2018-04-25T13:18:28.132Z,0.90
2018-04-25T13:20:55.054Z,0.90
2018-04-25T13:23:21.925Z,0.80
2018-04-25T13:25:49.038Z,1.10
2018-04-25T13:28:16.061Z,1.10
2018-04-25T13:30:43.686Z,1.20
2018-04-25T13:33:10.617Z,1.03
2018-04-25T13:35:37.629Z,1.30
2018-04-25T13:38:05.245Z,1.57
2018-04-25T13:40:32.131Z,1.07
2018-04-25T13:42:59.949Z,1.30
2018-04-25T13:45:26.904Z,1.30
2018-04-25T13:47:53.773Z,1.33
2018-04-25T13:50:20.703Z,1.20
2018-04-25T13:52:47.579Z,1.60
2018-04-25T13:55:15.203Z,1.30
2018-04-25T13:57:42.119Z,1.83
2018-04-25T14:00:08.993Z,1.60
2018-04-25T14:02:35.860Z,1.60
2018-04-25T14:05:02.929Z,1.40
2018-04-25T14:07:30.559Z,1.87
2018-04-25T14:09:57.522Z,1.50
2018-04-25T14:12:24.559Z,1.60
2018-04-25T14:14:51.609Z,1.93
2018-04-25T14:17:18.487Z,1.60
2018-04-25T14:19:46.319Z,1.80
2018-04-25T14:22:13.170Z,1.70
2018-04-25T14:24:40.110Z,1.70
2018-04-25T14:27:07.163Z,2.03
2018-04-25T14:29:34.046Z,1.70
2018-04-25T14:32:01.213Z,2.07
2018-04-25T14:34:28.235Z,1.93
2018-04-25T14:36:55.880Z,2.20
2018-04-25T14:39:22.817Z,2.00
2018-04-25T14:41:49.869Z,2.20
2018-04-25T14:44:16.796Z,2.40
2018-04-25T14:46:43.660Z,1.90
2018-04-25T14:49:10.677Z,2.13
2018-04-25T14:51:37.548Z,2.53
2018-04-25T14:54:04.446Z,2.37
2018-04-25T14:56:31.486Z,2.90
2018-04-25T14:58:58.413Z,2.07
2018-04-25T15:01:26.147Z,2.27
2018-04-25T15:03:53.102Z,2.00
2018-04-25T15:06:20.004Z,2.60
2018-04-25T15:08:46.890Z,2.30
2018-04-25T15:11:13.938Z,2.30
2018-04-25T15:13:40.811Z,2.30
2018-04-25T15:16:08.437Z,1.83
2018-04-25T15:18:35.510Z,1.73
2018-04-25T15:21:02.431Z,1.87
2018-04-25T15:23:29.357Z,1.80
2018-04-25T15:25:56.293Z,1.83
2018-04-25T15:28:23.186Z,1.90
2018-04-25T15:30:50.137Z,2.20
2018-04-25T15:33:17.086Z,1.97
2018-04-25T15:35:44.009Z,2.20
2018-04-25T15:38:10.878Z,2.63
2018-04-25T15:40:38.011Z,1.93
2018-04-25T15:43:04.960Z,2.00
2018-04-25T15:45:31.850Z,2.50
2018-04-25T15:47:58.776Z,2.23
2018-04-25T15:50:26.459Z,2.70
2018-04-25T15:52:53.404Z,4.20
2018-04-25T15:55:20.484Z,3.97
2018-04-25T15:57:47.406Z,2.80
2018-04-25T16:00:14.306Z,2.53
2018-04-25T16:02:41.333Z,2.50
2018-04-25T16:05:08.230Z,2.30
2018-04-25T16:07:35.865Z,2.60
2018-04-25T16:10:03.010Z,2.87
2018-04-25T16:12:30.063Z,2.60
2018-04-25T16:14:57.773Z,2.70
2018-04-25T16:17:24.848Z,2.77
2018-04-25T16:19:52.315Z,2.90
2018-04-25T16:22:19.997Z,3.17
2018-04-25T16:24:47.068Z,2.83
2018-04-25T16:27:14.736Z,3.10
2018-04-25T16:29:42.401Z,2.70
2018-04-25T16:32:10.070Z,2.90
2018-04-25T16:34:37.733Z,3.03
2018-04-25T16:37:05.408Z,3.00
2018-04-25T16:39:32.398Z,2.90
2018-04-25T16:41:59.385Z,3.00
2018-04-25T16:44:26.993Z,2.90
2018-04-25T16:46:54.029Z,3.13
2018-04-25T16:49:20.969Z,3.40
2018-04-25T16:51:47.849Z,3.63
2018-04-25T16:54:14.914Z,3.53
2018-04-25T16:56:41.791Z,3.57
2018-04-25T16:59:09.478Z,3.73
2018-04-25T17:01:36.497Z,3.60
2018-04-25T17:04:04.180Z,6.07
2018-04-25T17:06:31.185Z,6.07
2018-04-25T17:08:59.012Z,5.27
2018-04-25T17:11:25.872Z,3.43
2018-04-25T17:13:52.747Z,3.20
2018-04-25T17:16:19.790Z,3.50
2018-04-25T17:18:46.665Z,3.33
2018-04-25T17:21:14.350Z,3.20
2018-04-25T17:23:41.432Z,2.87
2018-04-25T17:26:08.385Z,2.83
2018-04-25T17:28:35.255Z,2.40
2018-04-25T17:31:02.457Z,2.53
2018-04-25T17:33:29.329Z,2.67
2018-04-25T17:35:56.230Z,2.20
2018-04-25T17:38:23.247Z,2.70
2018-04-25T17:40:50.874Z,2.40
2018-04-25T17:43:17.753Z,2.63
2018-04-25T17:45:44.691Z,3.80
2018-04-25T17:48:11.678Z,3.10
2018-04-25T17:50:38.633Z,1.97
2018-04-25T17:53:05.660Z,1.63
2018-04-25T17:55:32.540Z,1.47
2018-04-25T17:57:59.418Z,1.63
2018-04-25T18:00:26.554Z,1.60
2018-04-25T18:02:53.505Z,1.40
2018-04-25T18:05:20.396Z,1.50
2018-04-25T18:07:47.481Z,0.93
2018-04-25T18:10:14.371Z,1.20
2018-04-25T18:12:42.045Z,1.50
2018-04-25T18:15:09.032Z,1.30
2018-04-25T18:17:35.915Z,1.33
2018-04-25T18:20:02.867Z,1.23
2018-04-25T18:22:29.888Z,1.67
2018-04-25T18:24:56.888Z,1.83
2018-04-25T18:27:23.849Z,1.70
2018-04-25T18:29:50.926Z,1.33
2018-04-25T18:32:17.835Z,1.23
2018-04-25T18:34:44.720Z,1.60
2018-04-25T18:37:11.733Z,1.70
2018-04-25T18:39:38.659Z,1.17
2018-04-25T18:42:05.653Z,1.53
2018-04-25T18:44:32.677Z,1.70
2018-04-25T18:46:59.763Z,1.67
2018-04-25T18:49:27.009Z,1.63
2018-04-25T18:51:54.372Z,1.50
2018-04-25T18:54:21.669Z,1.70
2018-04-25T18:56:49.327Z,1.70
2018-04-25T18:59:17.157Z,2.23
2018-04-25T19:01:44.084Z,2.00
2018-04-25T19:04:11.014Z,2.00
2018-04-25T19:06:38.763Z,2.20
2018-04-25T19:09:05.661Z,2.03
2018-04-25T19:11:32.577Z,2.53
2018-04-25T19:13:59.572Z,3.27
2018-04-25T19:16:26.654Z,3.30
2018-04-25T19:18:53.543Z,3.30
2018-04-25T19:21:20.800Z,4.33
2018-04-25T19:23:47.680Z,4.60
2018-04-25T19:26:15.297Z,4.70
2018-04-25T19:28:42.773Z,4.53
2018-04-25T19:31:09.653Z,4.77
2018-04-25T19:33:37.352Z,4.20
2018-04-25T19:36:04.317Z,4.57
2018-04-25T19:38:31.291Z,4.77
2018-04-25T19:40:58.291Z,4.70
2018-04-25T19:43:25.317Z,5.03
2018-04-25T19:45:52.261Z,5.33
2018-04-25T19:48:19.880Z,5.17
2018-04-25T19:50:47.072Z,5.37
2018-04-25T19:53:14.744Z,5.60
2018-04-25T19:55:42.419Z,6.47
2018-04-25T19:58:09.331Z,7.10
2018-04-25T20:00:36.203Z,5.63
2018-04-25T20:03:03.156Z,5.90
2018-04-25T20:05:30.320Z,5.63
2018-04-25T20:07:57.247Z,6.53
2018-04-25T20:10:24.856Z,6.30
2018-04-25T20:12:51.788Z,6.77
2018-04-25T20:15:19.463Z,6.10
2018-04-25T20:17:46.336Z,6.70
2018-04-25T20:20:13.604Z,5.73
2018-04-25T20:22:40.433Z,5.50
2018-04-25T20:25:07.309Z,6.40
2018-04-25T20:27:34.535Z,6.87
2018-04-25T20:30:01.403Z,5.87
2018-04-25T20:32:29.030Z,6.10
2018-04-25T20:34:55.968Z,6.40
2018-04-25T20:37:22.915Z,6.10
2018-04-25T20:39:49.896Z,5.57
2018-04-25T20:42:17.657Z,6.33
2018-04-25T20:44:45.388Z,7.30
2018-04-25T20:47:12.351Z,5.77
2018-04-25T20:49:39.617Z,6.17
2018-04-25T20:52:07.284Z,6.17
2018-04-25T20:54:34.246Z,7.07
2018-04-25T20:57:02.261Z,7.23
2018-04-25T20:59:29.117Z,6.73
2018-04-25T21:01:57.060Z,7.10
2018-04-25T21:04:24.000Z,7.63
2018-04-25T21:06:50.937Z,7.37
2018-04-25T21:09:17.841Z,6.73
2018-04-25T21:11:44.755Z,7.03
2018-04-25T21:14:11.623Z,7.60
2018-04-25T21:16:38.505Z,7.77
2018-04-25T21:19:05.430Z,7.07
2018-04-25T21:21:32.347Z,8.13
2018-04-25T21:23:59.302Z,8.00
2018-04-25T21:26:26.349Z,7.60
2018-04-25T21:28:53.252Z,7.63
2018-04-25T21:31:20.127Z,7.53
2018-04-25T21:33:47.146Z,7.40
2018-04-25T21:36:14.039Z,7.63
2018-04-25T21:38:40.982Z,8.40
2018-04-25T21:41:07.939Z,7.07
2018-04-25T21:43:35.162Z,7.70
2018-04-25T21:46:02.036Z,7.23
2018-04-25T21:48:28.971Z,6.97
2018-04-25T21:50:55.840Z,7.83
2018-04-25T21:53:22.701Z,8.00
2018-04-25T21:55:50.488Z,7.60
2018-04-25T21:58:17.373Z,7.53
2018-04-25T22:00:44.256Z,6.47
2018-04-25T22:03:12.017Z,7.97
2018-04-25T22:05:38.976Z,7.70
2018-04-25T22:08:05.900Z,8.27
2018-04-25T22:10:33.033Z,8.33
2018-04-25T22:12:59.943Z,8.40
2018-04-25T22:15:27.628Z,9.03
2018-04-25T22:17:54.925Z,7.90
2018-04-25T22:20:22.593Z,7.63
2018-04-25T22:22:50.211Z,7.70
2018-04-25T22:25:17.316Z,7.33
2018-04-25T22:27:44.200Z,7.57
2018-04-25T22:30:11.149Z,7.37
2018-04-25T22:32:38.463Z,7.50
2018-04-25T22:35:05.363Z,6.83
2018-04-25T22:37:32.253Z,6.83
2018-04-25T22:39:59.502Z,7.00
2018-04-25T22:42:26.435Z,6.63
2018-04-25T22:44:53.360Z,7.13
2018-04-25T22:47:20.542Z,6.97
2018-04-25T22:49:47.504Z,5.67
2018-04-25T22:52:14.421Z,6.33
2018-04-25T22:54:42.092Z,5.53
2018-04-25T22:57:09.711Z,5.57
2018-04-25T22:59:36.607Z,5.00
2018-04-25T23:02:04.537Z,6.00
2018-04-25T23:04:32.203Z,5.53
2018-04-25T23:06:59.152Z,5.27
2018-04-25T23:09:26.220Z,5.47
2018-04-25T23:11:53.109Z,6.13
2018-04-25T23:14:19.983Z,5.77
2018-04-25T23:16:47.059Z,5.70
2018-04-25T23:19:14.795Z,6.00
2018-04-25T23:21:41.677Z,6.20
2018-04-25T23:24:09.454Z,6.30
2018-04-25T23:26:37.093Z,6.53
2018-04-25T23:29:04.046Z,6.60
2018-04-25T23:31:31.123Z,7.03
2018-04-25T23:33:58.086Z,6.20
2018-04-25T23:36:25.025Z,6.70
2018-04-25T23:38:52.017Z,7.17
2018-04-25T23:41:18.888Z,6.80
2018-04-25T23:43:46.512Z,7.83
2018-04-25T23:46:13.466Z,7.87
2018-04-25T23:48:40.383Z,8.03
2018-04-25T23:51:07.269Z,7.70
2018-04-25T23:53:34.307Z,8.47
2018-04-25T23:56:01.318Z,7.50
2018-04-25T23:58:28.923Z,8.83
